Time;durP1;ratioP1;P1;durP2;ratioP2;P2;SDS_P1;SDS_P2;PMS_P1;PMS_P2;Temp;Humidity;BMP_temperature;BMP_pressure;BME280_temperature;BME280_humidity;BME280_pressure;Samples;Min_cycle;Max_cycle;Signal;HPM_P1;HPM_P2
2023/06/29 00:01:55;;;;;;;7.30;3.17;;;;;;;13.70;100.00;101063.34;5051594;28;20699;-61
2023/06/29 00:04:25;;;;;;;9.00;3.50;;;;;;;13.63;100.00;101065.03;5052393;28;20040;-61
2023/06/29 00:06:55;;;;;;;10.45;3.50;;;;;;;13.55;100.00;101060.47;5052183;28;20045;-60
2023/06/29 00:09:22;;;;;;;7.68;2.95;;;;;;;13.52;100.00;101062.69;5052427;28;20044;-60
2023/06/29 00:11:49;;;;;;;6.85;3.60;;;;;;;13.51;100.00;101061.00;5051748;28;20095;-61
2023/06/29 00:14:15;;;;;;;9.10;3.65;;;;;;;13.51;100.00;101066.41;5052814;28;20045;-60
2023/06/29 00:16:42;;;;;;;7.07;2.97;;;;;;;13.46;100.00;101058.00;5052646;28;20408;-60
2023/06/29 00:19:08;;;;;;;8.15;3.58;;;;;;;13.46;100.00;101058.00;5052011;28;20136;-61
2023/06/29 00:21:35;;;;;;;13.40;3.78;;;;;;;13.40;100.00;101061.38;5052392;28;20052;-61
2023/06/29 00:24:02;;;;;;;6.78;3.60;;;;;;;13.38;100.00;101058.00;5051985;28;20103;-60
2023/06/29 00:26:29;;;;;;;10.65;3.50;;;;;;;13.33;100.00;101061.19;5052789;28;20064;-60
2023/06/29 00:28:56;;;;;;;10.13;3.13;;;;;;;13.28;100.00;101063.56;5051771;28;20075;-61
2023/06/29 00:31:24;;;;;;;10.77;3.00;;;;;;;13.27;100.00;101062.72;5051963;28;20378;-61
2023/06/29 00:33:51;;;;;;;6.75;3.42;;;;;;;13.30;100.00;101069.63;5052265;28;20045;-60
2023/06/29 00:36:18;;;;;;;9.32;3.00;;;;;;;13.27;100.00;101062.72;5052189;28;20053;-60
2023/06/29 00:38:44;;;;;;;8.25;3.28;;;;;;;13.35;100.00;101060.03;5052053;28;20406;-61
2023/06/29 00:41:11;;;;;;;10.10;3.20;;;;;;;13.34;100.00;101052.94;5051409;28;20048;-61
2023/06/29 00:43:37;;;;;;;8.70;2.88;;;;;;;13.37;100.00;101059.00;5051710;28;20063;-59
2023/06/29 00:46:07;;;;;;;8.48;3.25;;;;;;;13.32;100.00;101054.13;5051378;28;20091;-60
2023/06/29 00:48:38;;;;;;;9.68;4.15;;;;;;;13.22;100.00;101048.94;5051906;28;20404;-60
2023/06/29 00:51:05;;;;;;;11.70;3.55;;;;;;;13.19;100.00;101043.88;5051393;28;20493;-61
2023/06/29 00:53:32;;;;;;;8.85;3.03;;;;;;;13.25;100.00;101045.03;5051714;28;20071;-59
2023/06/29 00:56:00;;;;;;;8.60;3.03;;;;;;;13.20;100.00;101037.47;5052256;28;20079;-61
2023/06/29 00:58:27;;;;;;;11.98;3.42;;;;;;;13.19;100.00;101038.47;5051353;28;20045;-61
2023/06/29 01:00:55;;;;;;;6.55;2.72;;;;;;;13.16;100.00;101038.81;5051284;28;20114;-60
2023/06/29 01:03:22;;;;;;;10.65;3.08;;;;;;;13.18;100.00;101034.13;5051299;28;20041;-60
2023/06/29 01:09:52;;;;;;;14.18;3.55;;;;;;;13.20;100.00;101029.38;5050577;28;20087;-58
2023/06/29 01:12:20;;;;;;;8.05;3.15;;;;;;;13.15;100.00;101031.75;5051031;28;20497;-61
2023/06/29 01:14:49;;;;;;;7.90;3.33;;;;;;;13.11;100.00;101033.94;5051017;28;20048;-61
2023/06/29 01:17:21;;;;;;;9.93;3.65;;;;;;;13.10;100.00;101029.56;5050508;28;20037;-59
2023/06/29 01:19:50;;;;;;;9.45;3.53;;;;;;;13.11;100.00;101033.94;5051278;28;20110;-63
2023/06/29 01:22:46;;;;;;;8.05;3.45;;;;;;;13.06;100.00;101030.91;5051105;28;20443;-59
2023/06/29 01:25:12;;;;;;;7.80;3.88;;;;;;;12.99;100.00;101029.06;5040666;28;20079;-61
2023/06/29 01:27:43;;;;;;;10.18;3.80;;;;;;;12.98;100.00;101028.22;5051046;28;20455;-59
2023/06/29 01:30:11;;;;;;;10.73;3.78;;;;;;;12.98;100.00;101024.69;5050615;28;20095;-60
2023/06/29 01:32:38;;;;;;;8.80;3.92;;;;;;;12.99;100.00;101023.69;5049897;28;20045;-61
2023/06/29 01:35:09;;;;;;;9.15;3.92;;;;;;;12.91;100.00;101021.00;5051136;28;20095;-57
2023/06/29 01:37:53;;;;;;;9.52;3.80;;;;;;;12.85;100.00;101025.19;5051026;28;20048;-61
2023/06/29 01:40:26;;;;;;;11.27;4.03;;;;;;;12.83;100.00;101014.59;5050552;28;20052;-60
2023/06/29 01:42:55;;;;;;;5.97;3.30;;;;;;;12.84;100.00;101018.97;5050735;28;20041;-60
2023/06/29 01:45:23;;;;;;;8.43;3.53;;;;;;;12.81;100.00;101018.47;5050766;28;20086;-60
2023/06/29 01:47:49;;;;;;;7.80;3.38;;;;;;;12.82;100.00;101012.91;5050181;28;21801;-60
2023/06/29 01:50:17;;;;;;;7.72;3.47;;;;;;;12.87;100.00;101015.09;5049746;28;20041;-60
2023/06/29 01:52:44;;;;;;;6.80;3.28;;;;;;;12.86;100.00;101006.16;5049716;28;20493;-59
2023/06/29 01:55:11;;;;;;;9.30;3.53;;;;;;;12.84;100.00;101010.06;5050404;28;20075;-62
2023/06/29 01:57:38;;;;;;;12.82;3.63;;;;;;;12.84;100.00;101012.75;5049626;28;20068;-59
2023/06/29 02:00:06;;;;;;;6.05;3.30;;;;;;;12.76;100.00;101013.56;5050365;28;20053;-61
2023/06/29 02:02:32;;;;;;;12.05;3.92;;;;;;;12.76;100.00;101015.41;5050349;28;20045;-60
2023/06/29 02:04:59;;;;;;;9.15;3.35;;;;;;;12.80;100.00;101012.25;5050772;28;20127;-61
2023/06/29 02:07:26;;;;;;;11.65;4.05;;;;;;;12.76;100.00;101015.41;5050746;28;20052;-61
2023/06/29 02:09:52;;;;;;;9.40;3.70;;;;;;;12.68;100.00;101008.16;5050412;28;20072;-60
2023/06/29 02:12:19;;;;;;;8.10;3.47;;;;;;;12.67;100.00;101013.72;5050431;28;20122;-60
2023/06/29 02:14:45;;;;;;;11.57;3.80;;;;;;;12.62;100.00;101004.25;5049481;28;20053;-59
2023/06/29 02:17:12;;;;;;;8.57;3.92;;;;;;;12.61;100.00;101010.66;5049902;28;20489;-61
2023/06/29 02:19:38;;;;;;;8.13;4.28;;;;;;;12.57;100.00;101020.09;5050402;28;20504;-61
2023/06/29 02:22:05;;;;;;;7.45;3.97;;;;;;;12.56;100.00;101013.03;5049539;28;20049;-60
2023/06/29 02:24:32;;;;;;;7.25;3.88;;;;;;;12.54;100.00;101014.19;5049866;28;20413;-61
2023/06/29 02:26:58;;;;;;;6.30;3.85;;;;;;;12.53;100.00;101010.66;5050157;28;20087;-60
2023/06/29 02:29:25;;;;;;;9.82;3.83;;;;;;;12.51;100.00;101012.66;5050187;28;20056;-60
2023/06/29 02:31:51;;;;;;;7.55;3.70;;;;;;;12.48;100.00;101017.53;5050268;28;20052;-60
2023/06/29 02:34:18;;;;;;;8.90;4.15;;;;;;;12.49;100.00;101013.88;5050317;28;20049;-60
2023/06/29 02:36:45;;;;;;;12.73;3.30;;;;;;;12.48;100.00;101012.16;5050371;28;20041;-60
2023/06/29 02:39:12;;;;;;;8.27;3.80;;;;;;;12.47;100.00;101016.69;5049651;28;20389;-60
2023/06/29 02:41:38;;;;;;;8.77;4.53;;;;;;;12.43;100.00;101015.34;5050168;28;20053;-59
2023/06/29 02:44:05;;;;;;;9.68;4.63;;;;;;;12.43;100.00;101015.34;5049963;28;20045;-60
2023/06/29 02:46:31;;;;;;;8.95;4.13;;;;;;;12.42;100.00;101016.38;5050107;28;20493;-61
2023/06/29 02:48:58;;;;;;;9.18;4.18;;;;;;;12.49;100.00;101024.63;5049869;28;20485;-60
2023/06/29 02:51:25;;;;;;;7.15;4.10;;;;;;;12.45;100.00;101025.94;5049905;28;20075;-60
2023/06/29 02:53:51;;;;;;;10.45;4.10;;;;;;;12.39;100.00;101022.91;5049862;28;20056;-61
2023/06/29 02:56:18;;;;;;;8.75;4.50;;;;;;;12.36;100.00;101020.56;5049751;28;20110;-61
2023/06/29 02:58:44;;;;;;;10.00;5.10;;;;;;;12.35;100.00;101015.34;5049476;28;20509;-61
2023/06/29 03:01:11;;;;;;;8.93;4.32;;;;;;;12.31;100.00;101022.88;5049477;28;20509;-61
2023/06/29 03:03:37;;;;;;;13.90;4.65;;;;;;;12.26;100.00;101022.53;5050046;28;20044;-60
2023/06/29 03:06:04;;;;;;;9.93;4.30;;;;;;;12.22;100.00;101021.19;5052769;28;20128;-60
2023/06/29 03:08:31;;;;;;;9.05;4.45;;;;;;;12.19;100.00;101024.19;5053833;28;20099;-60
2023/06/29 03:10:57;;;;;;;9.05;4.53;;;;;;;12.21;100.00;101021.34;5054073;28;20071;-60
2023/06/29 03:13:24;;;;;;;9.00;4.30;;;;;;;12.21;100.00;101027.59;5053772;28;20056;-60
2023/06/29 03:15:50;;;;;;;10.35;4.13;;;;;;;12.26;100.00;101030.59;5053294;28;20076;-58
2023/06/29 03:18:17;;;;;;;14.45;4.22;;;;;;;12.29;100.00;101022.22;5053547;28;20045;-60
2023/06/29 03:20:43;;;;;;;12.07;4.45;;;;;;;12.30;100.00;101026.59;5053721;28;20049;-60
2023/06/29 03:23:10;;;;;;;13.10;4.68;;;;;;;12.28;100.00;101023.22;5053708;28;20069;-60
2023/06/29 03:25:36;;;;;;;9.27;5.20;;;;;;;12.27;100.00;101026.91;5053587;28;20571;-60
2023/06/29 03:28:03;;;;;;;14.00;5.78;;;;;;;12.26;100.00;101027.91;5053150;28;20056;-59
2023/06/29 03:30:29;;;;;;;8.50;5.32;;;;;;;12.27;100.00;101023.38;5053769;28;20049;-60
2023/06/29 03:32:58;;;;;;;11.70;4.43;;;;;;;12.28;100.00;101022.34;5053871;28;20079;-61
2023/06/29 03:35:25;;;;;;;13.35;5.60;;;;;;;12.29;100.00;101024.91;5053751;28;20068;-60
2023/06/29 03:37:52;;;;;;;9.02;4.88;;;;;;;12.34;100.00;101036.00;5053086;28;20064;-60
2023/06/29 03:40:18;;;;;;;11.07;5.22;;;;;;;12.44;100.00;101030.47;5053287;28;20067;-60
2023/06/29 03:42:45;;;;;;;7.88;4.75;;;;;;;12.51;100.00;101027.97;5053309;28;20056;-59
2023/06/29 03:45:11;;;;;;;9.32;4.40;;;;;;;12.61;100.00;101028.66;5053032;28;20127;-60
2023/06/29 03:47:38;;;;;;;9.57;4.55;;;;;;;12.60;100.00;101032.38;5052639;28;20037;-60
2023/06/29 03:50:05;;;;;;;5.30;3.88;;;;;;;12.64;100.00;101031.88;5052803;28;20115;-60
2023/06/29 03:52:32;;;;;;;13.10;4.88;;;;;;;12.73;100.00;101030.03;5052978;28;20555;-60
2023/06/29 03:54:58;;;;;;;10.23;5.05;;;;;;;12.83;100.00;101028.06;5053557;28;20041;-60
2023/06/29 03:57:25;;;;;;;8.10;4.47;;;;;;;12.91;100.00;101026.38;5052096;28;20110;-60
2023/06/29 03:59:51;;;;;;;14.10;5.00;;;;;;;13.00;100.00;101025.34;5052281;28;20159;-60
2023/06/29 04:02:18;;;;;;;9.05;4.43;;;;;;;13.16;100.00;101033.44;5052170;28;20102;-61
2023/06/29 04:04:45;;;;;;;6.88;4.00;;;;;;;13.29;100.00;101032.91;5052304;28;20131;-60
2023/06/29 04:07:13;;;;;;;9.95;4.70;;;;;;;13.34;100.00;101033.25;5052484;28;20068;-60
2023/06/29 04:09:39;;;;;;;7.93;4.13;;;;;;;13.35;100.00;101041.16;5052451;28;20057;-61
2023/06/29 04:12:07;;;;;;;7.22;4.57;;;;;;;13.42;100.00;101032.38;5051984;28;20049;-60
2023/06/29 04:14:33;;;;;;;8.20;3.90;;;;;;;13.42;100.00;101035.06;5051806;28;20471;-60
2023/06/29 04:17:00;;;;;;;9.10;4.35;;;;;;;13.46;100.00;101029.19;5051932;28;20057;-61
2023/06/29 04:19:26;;;;;;;9.43;4.20;;;;;;;13.52;100.00;101033.88;5052235;28;20540;-59
2023/06/29 04:21:53;;;;;;;13.07;4.43;;;;;;;13.52;100.00;101033.03;5052178;28;20068;-61
2023/06/29 04:24:19;;;;;;;12.70;4.18;;;;;;;13.52;100.00;101030.34;5051662;28;20098;-61
2023/06/29 04:26:46;;;;;;;8.32;3.95;;;;;;;13.55;100.00;101035.38;5052314;28;20118;-61
2023/06/29 04:29:12;;;;;;;9.15;4.65;;;;;;;13.59;100.00;101031.31;5051882;28;20091;-61
2023/06/29 04:31:38;;;;;;;18.92;9.77;;;;;;;13.59;100.00;101031.31;5051801;28;20075;-60
2023/06/29 04:34:05;;;;;;;18.70;6.38;;;;;;;13.64;100.00;101030.81;5052101;28;20095;-60
2023/06/29 04:36:31;;;;;;;8.38;3.90;;;;;;;13.70;100.00;101030.13;5052197;28;20459;-60
2023/06/29 04:38:58;;;;;;;10.02;4.20;;;;;;;13.75;100.00;101027.75;5052622;28;20408;-61
2023/06/29 04:41:31;;;;;;;9.65;3.63;;;;;;;13.85;100.00;101031.13;5051115;28;20464;-60
2023/06/29 04:43:59;;;;;;;12.23;4.30;;;;;;;13.87;100.00;101025.53;5051781;28;20094;-60
2023/06/29 04:46:28;;;;;;;12.32;4.85;;;;;;;13.93;100.00;101024.84;5052023;28;20102;-60
2023/06/29 04:48:54;;;;;;;7.45;4.10;;;;;;;13.98;100.00;101023.31;5051877;28;20055;-60
2023/06/29 04:51:21;;;;;;;6.30;3.63;;;;;;;14.09;100.00;101030.19;5050508;28;20057;-61
2023/06/29 04:53:47;;;;;;;9.00;3.65;;;;;;;14.22;100.00;101019.66;5052129;28;20476;-61
2023/06/29 04:56:14;;;;;;;7.07;3.17;;;;;;;14.33;100.00;101022.97;5052079;28;20056;-61
2023/06/29 04:58:40;;;;;;;6.88;3.38;;;;;;;14.46;100.00;101020.50;5050707;28;20072;-61
2023/06/29 05:01:07;;;;;;;11.25;3.58;;;;;;;14.62;100.00;101020.41;5050892;28;20413;-61
2023/06/29 05:03:34;;;;;;;11.73;3.67;;;;;;;14.63;100.00;101011.28;5051685;28;20079;-61
2023/06/29 05:06:00;;;;;;;10.13;3.53;;;;;;;14.84;100.00;101017.91;5052359;28;20471;-60
2023/06/29 05:08:27;;;;;;;7.05;2.90;;;;;;;14.86;100.00;101016.72;5051431;28;20075;-61
2023/06/29 05:10:53;;;;;;;7.75;4.07;;;;;;;14.86;100.00;101015.88;5051378;28;20092;-61
2023/06/29 05:13:20;;;;;;;8.48;3.15;;;;;;;14.88;100.00;101013.84;5051554;28;20052;-61
2023/06/29 05:15:48;;;;;;;5.30;2.92;;;;;;;14.98;100.00;101017.97;5051098;28;20631;-59
2023/06/29 05:18:15;;;;;;;9.75;3.30;;;;;;;15.03;100.00;101028.22;5050440;28;20404;-60
2023/06/29 05:20:42;;;;;;;16.55;3.30;;;;;;;15.04;100.00;101021.81;5051156;28;20061;-61
2023/06/29 05:23:11;;;;;;;12.90;4.10;;;;;;;15.06;100.00;101013.53;5051120;28;20462;-61
2023/06/29 05:25:39;;;;;;;8.95;2.75;;;;;;;15.21;100.00;101012.53;5050748;28;20128;-61
2023/06/29 05:28:06;;;;;;;7.15;2.83;;;;;;;15.22;100.00;101019.63;5050760;28;20037;-60
2023/06/29 05:30:34;;;;;;;8.93;3.05;;;;;;;15.25;100.00;101019.22;5051357;28;20052;-60
2023/06/29 05:33:00;;;;;;;11.23;3.17;;;;;;;15.33;100.00;101022.88;5051247;28;20051;-60
2023/06/29 05:35:27;;;;;;;9.32;3.30;;;;;;;15.44;100.00;101020.56;5050801;28;20071;-60
2023/06/29 05:37:54;;;;;;;9.98;3.42;;;;;;;15.51;100.00;101017.97;5050930;28;20052;-62
2023/06/29 05:40:20;;;;;;;9.15;3.75;;;;;;;15.55;100.00;101021.97;5050745;28;20045;-61
2023/06/29 05:42:47;;;;;;;11.15;2.97;;;;;;;15.58;100.00;101012.66;5050531;28;20052;-61
2023/06/29 05:45:13;;;;;;;11.25;2.92;;;;;;;15.59;100.00;101012.47;5050775;28;20366;-60
2023/06/29 05:47:40;;;;;;;9.95;3.20;;;;;;;15.64;100.00;101020.91;5050725;28;20057;-60
2023/06/29 05:50:07;;;;;;;17.63;3.58;;;;;;;16.13;100.00;101016.75;5050998;28;20044;-60
2023/06/29 05:52:34;;;;;;;8.23;3.75;;;;;;;15.76;100.00;101013.16;5050670;28;20485;-61
2023/06/29 05:55:02;;;;;;;9.55;3.40;;;;;;;15.86;100.00;101012.88;5051019;28;20048;-61
2023/06/29 05:57:28;;;;;;;12.30;3.70;;;;;;;15.97;100.00;101008.84;5049982;28;20068;-59
2023/06/29 05:59:55;;;;;;;9.88;3.10;;;;;;;16.00;100.00;101014.72;5050197;28;20045;-60
2023/06/29 06:02:22;;;;;;;11.18;3.30;;;;;;;16.09;100.00;101013.59;5050268;28;20501;-61
2023/06/29 06:04:49;;;;;;;7.13;2.58;;;;;;;16.08;100.00;101011.06;5050010;28;20048;-60
2023/06/29 06:07:27;;;;;;;5.50;2.67;;;;;;;16.04;100.00;101017.88;5050496;28;20524;-59
2023/06/29 06:09:54;;;;;;;9.07;3.67;;;;;;;16.02;100.00;101019.94;5050234;28;20056;-60
2023/06/29 06:12:20;;;;;;;5.72;2.50;;;;;;;16.02;100.00;101018.09;5050217;28;20083;-60
2023/06/29 06:14:47;;;;;;;7.50;3.38;;;;;;;16.01;100.00;101016.38;5050395;28;20416;-61
2023/06/29 06:17:14;;;;;;;8.35;2.70;;;;;;;15.87;100.00;101017.25;5050153;28;20068;-60
2023/06/29 06:19:41;;;;;;;8.80;3.35;;;;;;;16.03;100.00;101017.06;5050599;28;20053;-61
2023/06/29 06:22:08;;;;;;;11.93;3.80;;;;;;;16.27;100.00;101018.59;5050314;28;20452;-59
2023/06/29 06:24:35;;;;;;;9.18;2.53;;;;;;;16.38;100.00;101015.38;5050158;28;20045;-61
2023/06/29 06:27:02;;;;;;;9.18;3.35;;;;;;;16.64;100.00;101019.41;5050127;28;20098;-59
2023/06/29 06:29:29;;;;;;;10.77;2.72;;;;;;;16.66;100.00;101023.63;5050334;28;20103;-61
2023/06/29 06:31:55;;;;;;;14.40;7.25;;;;;;;16.90;100.00;101019.69;5050054;28;20045;-60
2023/06/29 06:34:22;;;;;;;11.20;4.65;;;;;;;16.93;100.00;101018.47;5050196;28;20044;-59
2023/06/29 06:36:48;;;;;;;14.57;6.93;;;;;;;17.01;100.00;101017.47;5049855;28;20074;-59
2023/06/29 06:39:15;;;;;;;9.95;2.85;;;;;;;17.04;100.00;101012.50;5050230;28;20386;-60
2023/06/29 06:41:41;;;;;;;8.93;2.63;;;;;;;17.16;100.00;101020.09;5054253;28;20045;-60
2023/06/29 06:44:08;;;;;;;8.10;2.97;;;;;;;17.35;100.00;101019.44;5053751;28;20045;-60
2023/06/29 06:46:34;;;;;;;7.97;3.00;;;;;;;17.31;100.00;101018.13;5054307;28;20045;-60
2023/06/29 06:49:01;;;;;;;10.23;2.40;;;;;;;17.35;100.00;101022.16;5054010;28;20057;-58
2023/06/29 06:51:28;;;;;;;22.02;3.35;;;;;;;17.45;100.00;101019.94;5054725;28;20098;-64
2023/06/29 06:53:55;;;;;;;14.57;2.92;;;;;;;17.52;100.00;101020.81;5053700;28;20045;-64
2023/06/29 06:56:24;;;;;;;5.55;2.28;;;;;;;17.51;100.00;101019.16;5054171;28;20052;-63
2023/06/29 06:58:51;;;;;;;12.85;3.22;;;;;;;17.66;100.00;101020.91;5053929;28;20103;-64
2023/06/29 07:01:21;;;;;;;15.32;2.80;;;;;;;17.61;100.00;101013.34;5053731;28;20052;-64
2023/06/29 07:03:48;;;;;;;11.02;2.50;;;;;;;17.70;100.00;101014.03;5053857;28;20045;-65
2023/06/29 07:06:14;;;;;;;9.88;2.60;;;;;;;17.79;100.00;101018.28;5053885;28;20090;-64
2023/06/29 07:08:41;;;;;;;16.33;2.97;;;;;;;17.80;100.00;101012.63;5053909;28;20053;-63
2023/06/29 07:11:07;;;;;;;8.95;3.03;;;;;;;17.68;100.00;101016.09;5053371;28;20386;-63
2023/06/29 07:13:34;;;;;;;9.43;2.60;;;;;;;17.55;100.00;101020.41;5053366;28;20064;-62
2023/06/29 07:16:00;;;;;;;8.05;2.97;;;;;;;17.69;100.00;101020.50;5053793;28;20041;-64
2023/06/29 07:18:29;;;;;;;11.55;2.55;;;;;;;17.41;100.00;101015.94;5053331;28;20106;-63
2023/06/29 07:20:56;;;;;;;11.18;2.55;;;;;;;17.52;100.00;101011.84;5052556;28;20053;-63
2023/06/29 07:23:25;;;;;;;7.03;2.58;;;;;;;17.55;100.00;101004.16;5052836;28;20037;-64
2023/06/29 07:25:54;;;;;;;8.63;2.20;;;;;;;17.40;100.00;101008.81;5052421;28;20500;-63
2023/06/29 07:28:21;;;;;;;7.65;2.78;;;;;;;17.70;100.00;101008.59;5053077;28;20060;-64
2023/06/29 07:30:48;;;;;;;9.32;3.13;;;;;;;17.58;100.00;101001.03;5051882;28;20048;-63
2023/06/29 07:33:14;;;;;;;6.05;3.10;;;;;;;17.50;100.00;101006.59;5053138;28;20049;-63
2023/06/29 07:35:41;;;;;;;5.75;2.90;;;;;;;17.56;100.00;101004.97;5052519;28;20136;-63
2023/06/29 07:38:08;;;;;;;7.93;2.90;;;;;;;17.65;100.00;101008.34;5053064;28;20052;-63
2023/06/29 07:40:35;;;;;;;8.35;2.45;;;;;;;17.68;100.00;101002.53;5052916;28;20185;-63
2023/06/29 07:43:01;;;;;;;9.93;2.85;;;;;;;17.71;100.00;101004.84;5053421;28;20056;-62
2023/06/29 07:45:28;;;;;;;9.95;2.55;;;;;;;17.87;100.00;101001.81;5052277;28;20063;-64
2023/06/29 07:47:55;;;;;;;46.80;8.13;;;;;;;18.02;100.00;101004.38;5052798;28;20048;-64
2023/06/29 07:50:21;;;;;;;19.58;3.67;;;;;;;17.99;100.00;101005.59;5053257;28;20060;-64
2023/06/29 07:52:48;;;;;;;17.88;3.17;;;;;;;17.97;100.00;100994.13;5052732;28;20045;-64
2023/06/29 07:55:15;;;;;;;28.63;4.32;;;;;;;17.98;100.00;100998.50;5051756;28;20072;-63
2023/06/29 07:57:42;;;;;;;7.30;2.80;;;;;;;18.09;100.00;101002.50;5051798;28;20053;-63
2023/06/29 08:00:12;;;;;;;6.78;2.83;;;;;;;18.21;100.00;100997.38;5052635;28;20053;-64
2023/06/29 08:02:39;;;;;;;8.82;3.13;;;;;;;18.16;100.00;101002.56;5052956;28;20094;-63
2023/06/29 08:05:07;;;;;;;7.25;2.40;;;;;;;18.35;100.00;101001.81;5052893;28;20128;-64
2023/06/29 08:07:37;;;;;;;9.70;3.05;;;;;;;18.29;100.00;100999.91;5052450;28;20044;-63
2023/06/29 08:10:04;;;;;;;8.05;2.42;;;;;;;18.33;100.00;100995.72;5052348;28;20512;-64
2023/06/29 08:12:31;;;;;;;6.75;2.65;;;;;;;18.37;100.00;100996.16;5052428;28;20551;-64
2023/06/29 08:14:57;;;;;;;8.18;3.00;;;;;;;18.34;100.00;100997.41;5052569;28;20052;-62
2023/06/29 08:17:24;;;;;;;8.27;3.03;;;;;;;18.34;100.00;100991.97;5052057;28;20106;-63
2023/06/29 08:19:50;;;;;;;7.10;2.67;;;;;;;18.42;100.00;100996.41;5051418;28;20566;-63
2023/06/29 08:22:17;;;;;;;8.98;2.60;;;;;;;18.52;100.00;101000.38;5052341;28;20037;-63
2023/06/29 08:24:43;;;;;;;10.15;2.65;;;;;;;18.48;100.00;100992.81;5052391;28;20077;-63
2023/06/29 08:27:10;;;;;;;7.63;2.78;;;;;;;18.49;100.00;100989.94;5052426;28;20049;-63
2023/06/29 08:29:39;;;;;;;7.95;2.40;;;;;;;18.70;100.00;100991.63;5052241;28;20456;-63
2023/06/29 08:32:08;;;;;;;15.93;2.90;;;;;;;18.72;100.00;100991.41;5051425;28;20041;-63
2023/06/29 08:34:35;;;;;;;8.07;2.60;;;;;;;18.85;100.00;100991.41;5051695;28;20065;-64
2023/06/29 08:37:02;;;;;;;11.73;2.65;;;;;;;18.79;100.00;101000.41;5051712;28;20045;-61
2023/06/29 08:39:28;;;;;;;4.15;2.35;;;;;;;19.03;100.00;100985.38;5052582;28;20045;-64
2023/06/29 08:41:55;;;;;;;9.57;2.53;;;;;;;19.08;100.00;100979.34;5052090;28;20064;-63
2023/06/29 08:44:25;;;;;;;11.07;3.17;;;;;;;18.93;100.00;100980.41;5051809;28;20075;-63
2023/06/29 08:46:52;;;;;;;10.93;2.75;;;;;;;18.98;100.00;100996.06;5051491;28;20120;-63
2023/06/29 08:49:22;;;;;;;9.60;2.38;;;;;;;18.83;100.00;100993.53;5051385;28;20098;-63
2023/06/29 08:51:51;;;;;;;5.25;2.00;;;;;;;18.85;100.00;100987.88;5051697;28;20056;-63
2023/06/29 08:54:18;;;;;;;6.82;2.58;;;;;;;18.80;100.00;100991.22;5051108;28;20406;-63
2023/06/29 08:56:46;;;;;;;10.55;2.45;;;;;;;18.76;100.00;100982.66;5051454;28;20049;-63
2023/06/29 08:59:14;;;;;;;7.13;2.50;;;;;;;18.67;100.00;100989.31;5051364;28;20132;-63
2023/06/29 09:01:41;;;;;;;5.53;2.22;;;;;;;18.63;100.00;100989.94;5050943;28;20099;-63
2023/06/29 09:04:07;;;;;;;7.30;2.40;;;;;;;18.75;100.00;100988.28;5051221;28;20057;-63
2023/06/29 09:06:34;;;;;;;6.03;2.25;;;;;;;18.69;100.00;100984.53;5052271;28;20044;-63
2023/06/29 09:09:01;;;;;;;11.20;2.78;;;;;;;18.63;100.00;100990.78;5051159;28;20045;-63
2023/06/29 09:11:33;;;;;;;4.10;2.28;;;;;;;18.46;100.00;100981.34;5050785;28;20045;-64
2023/06/29 09:14:05;;;;;;;5.70;2.30;;;;;;;18.59;100.00;100991.41;5051543;28;20056;-64
2023/06/29 09:16:34;;;;;;;5.93;2.33;;;;;;;18.70;100.00;100985.34;5050161;28;20044;-63
2023/06/29 09:19:02;;;;;;;4.60;2.10;;;;;;;18.81;100.00;100987.44;5051662;28;20045;-63
2023/06/29 09:21:29;;;;;;;5.18;2.47;;;;;;;18.82;100.00;100988.28;5050694;28;20044;-63
2023/06/29 09:23:57;;;;;;;4.50;2.25;;;;;;;18.87;100.00;100985.78;5051697;28;20118;-64
2023/06/29 09:26:28;;;;;;;7.78;2.17;;;;;;;18.86;100.00;100974.09;5050919;28;20068;-64
2023/06/29 09:29:03;;;;;;;3.83;2.08;;;;;;;18.89;100.00;100980.97;5050945;28;20116;-64
2023/06/29 09:31:35;;;;;;;6.13;2.53;;;;;;;18.91;100.00;100970.72;5050933;28;20056;-63
2023/06/29 09:34:21;;;;;;;10.27;2.83;;;;;;;19.09;100.00;100981.00;5051015;28;20044;-64
2023/06/29 09:36:48;;;;;;;4.85;1.95;;;;;;;19.24;100.00;100971.56;5050617;28;20041;-64
2023/06/29 09:39:15;;;;;;;6.97;2.50;;;;;;;19.28;100.00;100977.44;5050131;28;20190;-61
2023/06/29 09:41:49;;;;;;;5.88;2.20;;;;;;;19.23;100.00;100972.59;5050180;28;20509;-63
2023/06/29 09:44:19;;;;;;;6.03;2.42;;;;;;;19.24;100.00;100968.00;5050887;28;20132;-64
2023/06/29 09:46:47;;;;;;;8.13;2.45;;;;;;;19.43;100.00;100963.59;5050260;28;20506;-64
2023/06/29 09:49:44;;;;;;;9.20;2.40;;;;;;;19.57;100.00;100969.81;5049584;28;20045;-64
2023/06/29 09:52:11;;;;;;;6.97;2.13;;;;;;;19.42;100.00;100960.03;5050289;28;20044;-64
2023/06/29 09:54:37;;;;;;;3.25;1.50;;;;;;;19.42;100.00;100970.09;5050252;28;20044;-64
2023/06/29 09:57:04;;;;;;;5.18;2.17;;;;;;;19.56;100.00;100962.72;5050763;28;20447;-64
2023/06/29 09:59:31;;;;;;;4.85;2.00;;;;;;;19.79;100.00;100957.63;5050583;28;20045;-64
2023/06/29 10:01:58;;;;;;;3.40;1.95;;;;;;;19.68;100.00;100950.13;5049041;28;20041;-64
2023/06/29 10:04:25;;;;;;;11.07;2.33;;;;;;;19.56;100.00;100952.66;5050492;28;20068;-64
2023/06/29 10:07:08;;;;;;;9.45;2.60;;;;;;;19.70;100.00;100956.22;5049886;28;20416;-64
2023/06/29 10:09:39;;;;;;;6.30;2.00;;;;;;;19.89;100.00;100957.16;5050184;28;20064;-64
2023/06/29 10:12:11;;;;;;;6.60;2.30;;;;;;;20.06;100.00;100952.91;5050210;28;20045;-63
2023/06/29 10:14:38;;;;;;;10.73;4.07;;;;;;;20.25;100.00;100945.69;5049161;28;20075;-63
2023/06/29 10:17:11;;;;;;;5.80;2.13;;;;;;;20.68;91.12;100944.97;5049959;28;20047;-63
2023/06/29 10:19:41;;;;;;;7.63;1.90;;;;;;;21.02;87.86;100946.34;5050191;28;20088;-63
2023/06/29 10:22:11;;;;;;;4.90;2.20;;;;;;;21.32;83.40;100941.06;5050109;28;20044;-64
2023/06/29 10:24:47;;;;;;;8.38;1.90;;;;;;;21.81;77.29;100931.06;5050224;28;20079;-63
2023/06/29 10:27:15;;;;;;;7.32;1.85;;;;;;;23.05;69.54;100927.66;5049512;28;20045;-64
2023/06/29 10:29:46;;;;;;;4.63;1.70;;;;;;;23.00;67.76;100925.66;5049458;28;20064;-64
2023/06/29 10:32:32;;;;;;;7.20;1.73;;;;;;;24.13;61.30;100920.69;5050272;28;20137;-64
2023/06/29 10:35:01;;;;;;;4.28;2.10;;;;;;;25.50;54.73;100926.72;5049547;28;20048;-63
2023/06/29 10:37:32;;;;;;;5.50;2.03;;;;;;;25.30;53.36;100923.69;5049926;28;20049;-64
2023/06/29 10:40:00;;;;;;;5.82;2.03;;;;;;;25.69;52.40;100913.53;5049622;28;20060;-63
2023/06/29 10:42:28;;;;;;;6.65;1.70;;;;;;;25.32;52.18;100913.31;5049807;28;20111;-63
2023/06/29 10:44:54;;;;;;;7.72;2.00;;;;;;;25.09;54.08;100906.94;5050206;28;20471;-63
2023/06/29 10:47:36;;;;;;;10.27;2.17;;;;;;;24.60;53.49;100906.72;5049938;28;20106;-63
2023/06/29 10:50:09;;;;;;;7.72;1.70;;;;;;;24.21;55.22;100903.84;5048284;28;20045;-63
2023/06/29 10:52:40;;;;;;;4.28;2.10;;;;;;;23.87;54.72;100910.31;5049683;28;20041;-63
2023/06/29 10:55:19;;;;;;;5.22;2.00;;;;;;;23.36;58.12;100893.63;5049803;28;20178;-63
2023/06/29 10:57:51;;;;;;;5.45;1.90;;;;;;;23.02;59.68;100896.16;5049729;28;20505;-63
2023/06/29 11:00:18;;;;;;;4.22;2.13;;;;;;;22.38;62.71;100899.78;5049731;28;20040;-64
2023/06/29 11:02:48;;;;;;;5.15;1.67;;;;;;;22.88;62.19;100902.09;5049725;28;20049;-63
2023/06/29 11:05:16;;;;;;;8.50;2.20;;;;;;;22.92;62.51;100890.47;5049224;28;20052;-64
2023/06/29 11:07:44;;;;;;;5.45;2.08;;;;;;;23.02;62.14;100896.16;5049545;28;20512;-63
2023/06/29 11:10:11;;;;;;;6.90;2.58;;;;;;;22.98;60.55;100888.66;5049136;28;20455;-64
2023/06/29 11:12:39;;;;;;;6.45;2.30;;;;;;;23.13;57.82;100889.06;5048418;28;20095;-64
2023/06/29 11:15:12;;;;;;;4.97;2.00;;;;;;;23.32;57.87;100877.94;5049738;28;20531;-62
2023/06/29 11:17:50;;;;;;;8.53;2.30;;;;;;;23.38;58.04;100874.25;5049969;28;20078;-64
2023/06/29 11:20:19;;;;;;;7.40;2.25;;;;;;;22.96;59.62;100875.22;5049850;28;20037;-64
2023/06/29 11:22:46;;;;;;;4.15;2.20;;;;;;;22.52;61.41;100873.91;5049364;28;20405;-64
2023/06/29 11:25:15;;;;;;;3.67;2.00;;;;;;;22.36;63.92;100874.56;5047531;28;20041;-64